Flight Track Log - Related Links

Times and Time Zones

All times are in EST time to prevent confusion due to time zone crossing. See the NKS416 flight status page for this flight to view local times or setup timezone preferences in your user account.

Time Position Orientation Groundspeed Altitude Reporting Facility
EST Latitude Longitude Course Direction KTS MPH feet Rate Location/Type
Sat 10:23:42 PM 26.0750 -80.1344 56° Northeast 185 213 900  Level Miami Center
Sat 10:24:48 PM 26.0953 -80.0656 72° East 241 277 2,400 2,039 Climbing Miami Center
Sat 10:26:15 PM 26.1372 -79.9647 65° Northeast 288 331 6,100 2,612 Climbing Miami Center
Sat 10:27:15 PM 26.1722 -79.8847 64° Northeast 288 331 8,800 2,311 Climbing Miami Center
Sat 10:28:17 PM 26.2075 -79.7978 66° East 293 337 10,800 1,721 Climbing Miami Center
Sat 10:29:00 PM 26.3325 -79.5292 56° Northeast  Level FlightAware Approximate
Sat 10:29:17 PM 26.2472 -79.6944 67° East 321 369 12,300  Level Miami Center
Sat 10:30:17 PM 26.3075 -79.5892 57° Northeast 358 412 14,400 1,604 Climbing Miami Center
Sat 10:36:16 PM 26.9457 -79.2145 27° Northeast 457 526 23,500 1,500 Climbing FlightAware ADS-B
Sat 10:36:49 PM 27.0073 -79.1796 27° Northeast 462 532 24,200 1,048 Climbing FlightAware ADS-B
Sat 10:37:19 PM 27.0664 -79.1461 27° Northeast 473 544 24,600 930 Climbing FlightAware ADS-B
Sat 10:38:00 PM 27.1473 -79.1000 27° Northeast 481 554 25,300 917 Climbing FlightAware ADS-B
Sat 10:38:31 PM 27.2089 -79.0683 17° North 482 555 25,700 871 Climbing FlightAware ADS-B
Sat 10:39:02 PM 27.2775 -79.0559 North 477 549 26,200 1,082 Climbing FlightAware ADS-B
Sat 10:39:32 PM 27.3435 -79.0461 North 480 552 26,800 1,279 Climbing FlightAware ADS-B
Sat 10:40:03 PM 27.4065 -79.0363 North 481 554 27,500 1,014 Climbing FlightAware ADS-B
Sat 10:40:43 PM 27.5010 -79.0217 North 488 562 28,000 845 Climbing FlightAware ADS-B
Sat 10:41:14 PM 27.5683 -79.0113 North 490 564 28,500 1,227 Climbing FlightAware ADS-B
Sat 10:42:11 PM 27.6980 -78.9907 North 487 560 29,800 1,200 Climbing FlightAware ADS-B
Sat 10:42:49 PM 27.7834 -78.9774 North 486 559 30,400 1,154 Climbing FlightAware ADS-B
Sat 10:43:55 PM 27.9249 -78.9550 North 479 551 31,800 1,143 Climbing FlightAware ADS-B
Sat 10:44:34 PM 28.0151 -78.9410 North 480 552 32,400 943 Climbing FlightAware ADS-B
Sat 10:45:05 PM 28.0824 -78.9305 North 479 551 32,900 774 Climbing FlightAware ADS-B
Sat 10:45:36 PM 28.1515 -78.9194 North 482 555 33,200 689 Climbing FlightAware ADS-B
Sat 10:46:06 PM 28.2155 -78.9093 North 483 556 33,600 800 Climbing FlightAware ADS-B
Sat 10:46:36 PM 28.2830 -78.8986 North 483 556 34,000 857 Climbing FlightAware ADS-B
Sat 10:47:37 PM 28.4175 -78.8772 North 481 554 34,900 215 Climbing FlightAware ADS-B
Sat 10:51:15 PM 28.8995 -78.8005 North 483 556 35,000 22 Climbing FlightAware ADS-B
Sat 10:52:16 PM 29.0244 -78.7861 North 485 558 35,000 -50 Level Miami Center
Sat 10:53:15 PM 29.1603 -78.7647 North 484 557 34,900 -50 Descending Miami Center
Sat 10:54:17 PM 29.2878 -78.7431 North 484 557 34,900  Level Miami Center
Sat 10:55:16 PM 29.4175 -78.7192 North 477 549 34,900 51 Level Miami Center
Sat 10:56:15 PM 29.5511 -78.7047 North 471 542 35,000 50 Climbing Miami Center
Sat 10:57:15 PM 29.6828 -78.6856 North 468 539 35,000 -50 Level Miami Center
Sat 10:58:16 PM 29.8122 -78.6636 North 468 539 34,900  Descending Miami Center
Sat 10:59:42 PM 29.9967 -78.6214 11° North 457 526 35,000 41 Climbing Jacksonville Center
Sat 11:00:42 PM 30.1231 -78.5942 11° North 467 537 35,000  Level Jacksonville Center
Sat 11:01:42 PM 30.2458 -78.5839 North 472 543 35,000 -50 Level Jacksonville Center
Sat 11:02:42 PM 30.3744 -78.5614 North 462 532 34,900 -50 Descending Jacksonville Center
Sat 11:03:42 PM 30.5075 -78.5408 North 467 537 34,900  Level Jacksonville Center
Sat 11:04:42 PM 30.6300 -78.5208 North 462 532 34,900 50 Level Jacksonville Center
Sat 11:05:42 PM 30.7628 -78.4978 North 471 542 35,000 50 Climbing Jacksonville Center
Sat 11:06:42 PM 30.8956 -78.4747 North 476 548 35,000  Level Jacksonville Center
Sat 11:07:42 PM 31.0242 -78.4542 North 470 541 35,000 -50 Level Jacksonville Center
Sat 11:08:42 PM 31.1486 -78.4336 North 464 534 34,900 -50 Descending Jacksonville Center
Sat 11:09:42 PM 31.2772 -78.4106 North 464 534 34,900  Level Jacksonville Center
Sat 11:10:42 PM 31.4058 -78.3872 North 464 534 34,900 50 Level Jacksonville Center
Sat 11:11:42 PM 31.5325 -78.3689 North 459 528 35,000 50 Climbing Jacksonville Center
Sat 11:12:42 PM 31.6653 -78.3456 North 465 535 35,000  Level Jacksonville Center
Sat 11:13:42 PM 31.7897 -78.3222 North 460 529 35,000 -50 Level Jacksonville Center
Sat 11:14:42 PM 31.9144 -78.3039 North 460 529 34,900 -50 Descending Jacksonville Center
Sat 11:15:42 PM 32.0408 -78.2828 North 460 529 34,900  Level Jacksonville Center
Sat 11:16:42 PM 32.1633 -78.2619 North 455 524 34,900 50 Level Jacksonville Center
Sat 11:17:42 PM 32.2919 -78.2383 North 455 524 35,000  Climbing Jacksonville Center
Sat 11:18:42 PM 32.4161 -78.2122 10° North 455 524 34,900 -50 Descending Jacksonville Center
Sat 11:19:42 PM 32.5383 -78.1911 North 449 517 34,900 50 Level Jacksonville Center
Sat 11:20:42 PM 32.6650 -78.1722 North 449 517 35,000  Climbing Jacksonville Center
Sat 11:21:42 PM 32.7894 -78.1483 North 449 517 34,900  Descending Jacksonville Center
Sat 11:23:37 PM 33.0419 -78.1056 North 453 521 35,000 34 Climbing Washington Center
Sat 11:24:37 PM 33.1656 -78.0844 North 453 521 35,000  Level Washington Center
Sat 11:25:39 PM 33.2911 -78.0608 North 453 521 35,000  Level Washington Center
Sat 11:26:37 PM 33.4144 -78.0419 North 447 514 35,000 -51 Level Washington Center
Sat 11:27:37 PM 33.5400 -78.0208 North 447 514 34,900 -50 Descending Washington Center
Sat 11:28:37 PM 33.6658 -77.9969 North 447 514 34,900 49 Level Washington Center
Sat 11:29:39 PM 33.7914 -77.9781 North 447 514 35,000 49 Climbing Washington Center
Sat 11:30:39 PM 33.8897 -77.9608 North 447 514 35,000  Level Washington Center
Sat 11:31:37 PM 34.0300 -77.9297 10° North 452 520 35,000  Level Washington Center
Sat 11:32:39 PM 34.1556 -77.9158 North 452 520 35,000  Level Washington Center
Sat 11:33:39 PM 34.2767 -77.9142 North 441 507 35,000  Level Washington Center
Sat 11:34:36 PM 34.4017 -77.9153 360° North 441 507 35,000 -51 Level Washington Center
Sat 11:35:37 PM 34.5250 -77.9086 North 435 501 34,900 -49 Descending Washington Center
Sat 11:36:39 PM 34.6439 -77.9094 360° North 435 501 34,900 19 Level Washington Center
Sat 11:40:50 PM 35.1701 -77.8927 North 438 504 35,000 17 Climbing FlightAware ADS-B
Sat 11:42:30 PM 35.3769 -77.8872 North 434 499 35,000  Level FlightAware ADS-B
Sat 11:44:01 PM 35.5581 -77.8825 North 434 499 35,000 16 Level FlightAware ADS-B
Sat 11:48:43 PM 36.1273 -77.8669 North 436 502 35,100  Climbing FlightAware ADS-B
Sat 11:49:39 PM 36.2306 -77.8656 North 435 501 35,000 -53 Descending Washington Center
Sat 11:50:37 PM 36.3494 -77.8614 North 435 501 35,000  Level Washington Center
Sat 11:51:37 PM 36.4664 -77.8597 North 429 494 35,000  Level Washington Center
Sat 11:52:36 PM 36.5833 -77.8578 North 423 487 35,000  Level Washington Center
Sat 11:53:38 PM 36.7022 -77.8508 North 423 487 35,000  Level Washington Center
Sat 11:54:39 PM 36.8192 -77.8492 North 423 487 35,000  Level Washington Center
Sat 11:55:37 PM 36.9381 -77.8447 North 423 487 35,000  Level Washington Center
Sat 11:56:36 PM 37.0550 -77.8431 North 423 487 35,000 50 Level Washington Center
Sat 11:57:38 PM 37.1761 -77.8414 North 423 487 35,100  Climbing Washington Center
Sun 12:03:38 AM 37.8542 -77.9195 347° North 398 458 35,000 -14 Descending FlightAware ADS-B (KCHO)
Sun 12:04:38 AM 37.9542 -77.9486 347° North 400 460 35,000  Level Washington Center
Sun 12:05:37 AM 38.0703 -77.9842 346° North 395 455 35,000  Level Washington Center
Sun 12:06:36 AM 38.1781 -78.0139 348° North 395 455 35,000  Level Washington Center
Sun 12:07:36 AM 38.2900 -78.0439 348° North 395 455 35,000  Level Washington Center
Sun 12:08:37 AM 38.4000 -78.0767 347° North 395 455 35,000 49 Level Washington Center
Sun 12:09:38 AM 38.4994 -78.1039 348° North 395 455 35,100  Climbing Washington Center
Sun 12:10:38 AM 38.6111 -78.1397 346° North 400 460 35,000 -50 Descending Washington Center
Sun 12:11:38 AM 38.7231 -78.1700 348° North 405 466 35,000  Level Washington Center
Sun 12:12:38 AM 38.8331 -78.2006 348° North 405 466 35,000  Level Washington Center
Sun 12:13:39 AM 38.9514 -78.2181 353° North 413 475 35,000  Level Washington Center
Sun 12:14:39 AM 39.0681 -78.2303 355° North 419 482 35,000  Level Washington Center
Sun 12:15:39 AM 39.1886 -78.2400 356° North 424 488 35,000  Level Washington Center
Sun 12:17:27 AM 39.4044 -78.2625 355° North 429 494 35,000  Level Cleveland Center
Sun 12:18:27 AM 39.5256 -78.2758 355° North 431 496 35,000  Level Cleveland Center
Sun 12:19:27 AM 39.6497 -78.2878 356° North 438 504 35,000  Level Cleveland Center
Sun 12:20:28 AM 39.7853 -78.3019 355° North 439 505 35,000  Level Cleveland Center
Sun 12:21:28 AM 39.9053 -78.3158 355° North 438 504 35,000  Level Cleveland Center
Sun 12:22:28 AM 40.0242 -78.3272 356° North 433 498 35,000  Level Cleveland Center
Sun 12:23:29 AM 40.1442 -78.3403 355° North 433 498 35,000  Level Cleveland Center
Sun 12:24:29 AM 40.2642 -78.3528 355° North 435 501 35,000  Level Cleveland Center
Sun 12:25:29 AM 40.3842 -78.3653 355° North 435 501 35,000 -555 Level Cleveland Center
Sun 12:30:58 AM 41.0554 -78.4368 356° North 431 496 31,400 -773 Descending FlightAware ADS-B (CYYZ)
Sun 12:34:09 AM 41.4378 -78.3604 14° North 444 511 28,300 -973 Descending FlightAware ADS-B (CYYZ)
Sun 12:34:40 AM 41.4942 -78.3580 352° North 400 460 27,800 -1,014 Descending FlightAware ADS-B (CYYZ)
Sun 12:35:20 AM 41.5664 -78.3832 345° North 391 450 27,100 -971 Descending FlightAware ADS-B (CYYZ)
Sun 12:35:48 AM 41.6102 -78.3987 346° North 386 444 26,700 -940 Descending FlightAware ADS-B (CYYZ)
Sun 12:37:34 AM 41.7941 -78.4639 345° North 373 429 25,000 -1,015 Descending FlightAware ADS-B (CYYZ)
Sun 12:38:04 AM 41.8449 -78.4823 345° North 378 435 24,400 -1,100 Descending FlightAware ADS-B (CYYZ)
Sun 12:38:34 AM 41.8958 -78.5006 345° North 377 434 23,900 -1,000 Descending FlightAware ADS-B (CYYZ)
Sun 12:39:04 AM 41.9460 -78.5185 346° North 375 432 23,400 -1,377 Descending FlightAware ADS-B (CYYZ)
Sun 12:39:35 AM 41.9948 -78.5359 345° North 371 427 22,500 -1,967 Descending FlightAware ADS-B (CYYZ)
Sun 12:40:05 AM 42.0462 -78.5546 345° North 368 423 21,400 -2,100 Descending FlightAware ADS-B (CYYZ)
Sun 12:40:35 AM 42.0949 -78.5723 345° North 364 419 20,400 -2,034 Descending FlightAware ADS-B (CYYZ)
Sun 12:41:04 AM 42.1410 -78.5891 345° North 362 417 19,400 -2,200 Descending FlightAware ADS-B (CYYZ)
Sun 12:41:35 AM 42.1912 -78.6074 345° North 362 417 18,200 -2,200 Descending FlightAware ADS-B (CYYZ)
Sun 12:42:04 AM 42.2387 -78.6246 345° North 354 407 17,200 -2,034 Descending FlightAware ADS-B (CYYZ)
Sun 12:42:34 AM 42.2864 -78.6421 345° North 347 399 16,200 -2,000 Descending FlightAware ADS-B (CYYZ)
Sun 12:43:04 AM 42.3313 -78.6581 347° North 339 390 15,200 -1,950 Descending FlightAware ADS-B (CYYZ)
Sun 12:43:14 AM 42.3474 -78.6606 358° North 345 397 14,900 -1,800 Descending FlightAware ADS-B (CYYZ)
Sun 12:43:24 AM 42.3627 -78.6596 North 347 399 14,600 -1,050 Descending FlightAware ADS-B (CYYZ)
Sun 12:43:54 AM 42.4103 -78.6512 North 328 377 14,200 -1,729 Descending FlightAware ADS-B (CYYZ)
Sun 12:44:23 AM 42.4539 -78.6433 North 335 386 12,900 -2,459 Descending FlightAware ADS-B (CYYZ)
Sun 12:44:55 AM 42.5017 -78.6360 North 335 386 11,700 -2,164 Descending FlightAware ADS-B (CYYZ)
Sun 12:45:24 AM 42.5461 -78.6293 North 328 377 10,700 -1,300 Descending FlightAware ADS-B (CYYZ)
Sun 12:45:55 AM 42.5899 -78.6232 North 305 351 10,400 -700 Descending FlightAware ADS-B (CYYZ)
Sun 12:46:24 AM 42.6309 -78.6175 North 285 328 10,000 -955 Descending FlightAware ADS-B (CYYZ)
Sun 12:46:39 AM 42.6506 -78.6145 North 278 320 9,700 -1,000 Descending FlightAware ADS-B (CYYZ)
Sun 12:46:54 AM 42.6670 -78.6119 North 271 312 9,500 -1,000 Descending FlightAware ADS-B (CYYZ)
Sun 12:47:09 AM 42.6868 -78.6090 North 269 310 9,200 -1,600 Descending FlightAware ADS-B (CYYZ)
Sun 12:47:24 AM 42.7052 -78.6064 North 269 310 8,700 -1,600 Descending FlightAware ADS-B (CYYZ)
Sun 12:47:39 AM 42.7241 -78.6040 North 263 303 8,400 -1,655 Descending FlightAware ADS-B (CYYZ)
Sun 12:47:53 AM 42.7397 -78.6024 North 260 299 7,900 -2,400 Descending FlightAware ADS-B (CYYZ)
Sun 12:48:09 AM 42.7607 -78.6005 North 261 300 7,200 -2,069 Descending FlightAware ADS-B (CYYZ)
Sun 12:48:22 AM 42.7762 -78.5989 North 258 297 6,900 -1,750 Descending FlightAware ADS-B (CYYZ)
Sun 12:48:33 AM 42.7890 -78.5976 North 256 295 6,500 -1,660 Descending FlightAware ADS-B (EPLB / LUZ)
Sun 12:49:09 AM 42.8303 -78.5932 North 253 291 5,600 -1,680 Descending FlightAware ADS-B (CYYZ)
Sun 12:49:23 AM 42.8478 -78.5915 North 257 296 5,100 -2,000 Descending FlightAware ADS-B (CYYZ)
Sun 12:49:39 AM 42.8657 -78.5901 North 261 300 4,600 -1,655 Descending FlightAware ADS-B (CYYZ)
Sun 12:49:52 AM 42.8813 -78.5889 North 261 300 4,300 -182 Descending FlightAware ADS-B (CYYZ)
Sun 12:55:08 AM 43.1087 -78.6946 272° West 171 197 3,600 -179 Descending FlightAware ADS-B (CYYZ)
Sun 12:55:28 AM 43.1088 -78.7144 271° West 169 194 3,300 -750 Descending FlightAware ADS-B (CYYZ)
Sun 12:56:04 AM 43.1167 -78.7500 271° West 168 193 2,900 -688 Descending Buffalo TRACON
Sun 12:57:04 AM 43.1167 -78.8000 270° West 149 171 2,200 -650 Descending Buffalo TRACON
Sun 12:58:04 AM 43.1167 -78.8500 270° West 122 140 1,600 -650 Descending Buffalo TRACON
Sun 12:59:04 AM 43.1167 -78.9000 270° West 124 143 900 -700 Descending Buffalo TRACON

Login

Don't have an account? Register now (free) for customized features, flight alerts, and more!